Time;durP1;ratioP1;P1;durP2;ratioP2;P2;SDS_P1;SDS_P2;PMS_P1;PMS_P2;Temp;Humidity;BMP_temperature;BMP_pressure;BME280_temperature;BME280_humidity;BME280_pressure;Samples;Min_cycle;Max_cycle;Signal;HPM_P1;HPM_P2
2023/04/21 00:00:25;;;;;;;2.42;0.60;;;20.00;59.80;;;;;;4988714;28;20112;-68
2023/04/21 00:02:52;;;;;;;2.25;0.65;;;20.00;59.80;;;;;;4989603;28;20129;-69
2023/04/21 00:05:19;;;;;;;2.15;0.63;;;20.00;59.80;;;;;;4988887;28;20492;-68
2023/04/21 00:07:47;;;;;;;1.67;0.80;;;20.00;59.80;;;;;;4988886;28;20065;-69
2023/04/21 00:10:14;;;;;;;1.70;0.52;;;20.00;59.80;;;;;;4987907;28;20100;-68
2023/04/21 00:12:41;;;;;;;1.75;0.68;;;20.00;59.80;;;;;;4988546;28;20062;-69
2023/04/21 00:15:09;;;;;;;1.35;0.45;;;20.00;59.80;;;;;;4989248;28;20104;-68
2023/04/21 00:17:36;;;;;;;1.65;0.40;;;20.00;59.80;;;;;;4988891;28;20068;-68
2023/04/21 00:20:05;;;;;;;1.63;0.47;;;20.00;59.80;;;;;;4988443;28;20058;-68
2023/04/21 00:22:32;;;;;;;;;;;20.00;59.90;;;;;;4990078;28;20478;-68
2023/04/21 00:25:01;;;;;;;1.33;0.63;;;20.00;59.70;;;;;;4989343;28;19980;-69
2023/04/21 00:27:28;;;;;;;1.90;0.70;;;20.00;59.80;;;;;;4988412;28;20058;-68
2023/04/21 00:29:54;;;;;;;1.80;0.60;;;20.00;59.80;;;;;;4986455;28;20550;-68
2023/04/21 00:32:21;;;;;;;2.33;0.52;;;20.00;59.80;;;;;;4987680;28;20108;-68
2023/04/21 00:34:48;;;;;;;1.30;0.60;;;20.00;59.80;;;;;;4989604;28;20054;-68
2023/04/21 00:37:15;;;;;;;2.38;0.80;;;20.00;59.90;;;;;;4985277;28;20042;-68
2023/04/21 00:39:42;;;;;;;3.22;0.73;;;19.90;59.80;;;;;;4986699;28;20518;-68
2023/04/21 00:42:11;;;;;;;1.77;0.60;;;20.00;60.40;;;;;;4989169;28;20495;-68
2023/04/21 00:44:37;;;;;;;1.88;0.80;;;19.90;59.80;;;;;;4978077;28;20562;-69
2023/04/21 00:47:04;;;;;;;1.70;0.65;;;19.90;59.80;;;;;;4989110;28;20050;-68
2023/04/21 00:49:32;;;;;;;2.05;0.82;;;19.90;59.80;;;;;;4985688;28;20054;-68
2023/04/21 00:51:59;;;;;;;1.52;0.70;;;19.90;59.80;;;;;;4988641;28;20070;-69
2023/04/21 00:54:27;;;;;;;1.60;0.63;;;19.90;59.80;;;;;;4988541;28;20120;-69
2023/04/21 00:56:55;;;;;;;1.80;0.70;;;19.90;59.80;;;;;;4988228;28;20084;-68
2023/04/21 00:59:24;;;;;;;1.70;0.63;;;19.90;59.80;;;;;;4987837;28;20586;-68
2023/04/21 01:01:51;;;;;;;2.17;0.60;;;19.90;59.80;;;;;;4988482;28;20063;-68
2023/04/21 01:04:18;;;;;;;1.98;0.68;;;19.90;59.80;;;;;;4986833;28;20057;-68
2023/04/21 01:06:45;;;;;;;1.85;0.80;;;19.90;59.70;;;;;;4987493;28;20112;-68
2023/04/21 01:09:13;;;;;;;1.52;0.60;;;19.90;59.80;;;;;;4988073;28;20061;-68
2023/04/21 01:11:40;;;;;;;1.30;0.40;;;19.90;59.80;;;;;;4988260;28;20050;-68
2023/04/21 01:14:07;;;;;;;2.25;0.90;;;19.80;59.70;;;;;;4987204;28;20062;-68
2023/04/21 01:16:36;;;;;;;1.70;0.55;;;19.90;59.80;;;;;;4988237;28;20073;-68
2023/04/21 01:19:04;;;;;;;1.50;0.70;;;19.90;59.80;;;;;;4987502;28;22676;-68
2023/04/21 01:21:39;;;;;;;1.98;0.60;;;19.90;59.80;;;;;;4988259;28;20049;-68
2023/04/21 01:24:06;;;;;;;1.50;0.60;;;19.90;59.70;;;;;;4985768;28;20057;-69
2023/04/21 01:26:33;;;;;;;2.03;0.65;;;19.90;59.70;;;;;;4989334;28;20057;-68
2023/04/21 01:29:00;;;;;;;1.95;0.70;;;19.90;59.70;;;;;;4987006;28;20065;-68
2023/04/21 01:31:27;;;;;;;1.50;0.60;;;19.90;59.70;;;;;;4988585;28;20450;-68
2023/04/21 01:33:54;;;;;;;1.58;0.60;;;19.80;59.70;;;;;;4986905;28;20042;-68
2023/04/21 01:36:21;;;;;;;1.50;0.57;;;19.90;59.70;;;;;;4981190;28;20054;-68
2023/04/21 01:38:49;;;;;;;1.77;0.73;;;19.80;59.70;;;;;;4983697;28;20054;-68
2023/04/21 01:41:18;;;;;;;1.58;0.63;;;19.80;59.70;;;;;;4990188;28;20415;-68
2023/04/21 01:43:45;;;;;;;2.30;0.80;;;19.80;59.70;;;;;;4991434;28;20129;-67
2023/04/21 01:46:12;;;;;;;1.42;0.60;;;19.80;59.70;;;;;;4990764;28;20062;-68
2023/04/21 01:48:39;;;;;;;1.73;0.80;;;19.80;59.70;;;;;;4991854;28;20050;-68
2023/04/21 01:51:06;;;;;;;2.42;0.90;;;19.80;59.70;;;;;;4989548;28;20054;-69
2023/04/21 01:53:33;;;;;;;1.50;0.63;;;19.80;59.70;;;;;;4990940;28;20050;-68
2023/04/21 01:56:01;;;;;;;2.15;0.88;;;19.80;59.70;;;;;;4991034;28;20827;-67
2023/04/21 01:58:28;;;;;;;1.25;0.52;;;19.80;59.70;;;;;;4992213;28;20397;-68
2023/04/21 02:00:55;;;;;;;2.85;0.90;;;19.80;59.70;;;;;;4989123;28;20058;-69
2023/04/21 02:03:22;;;;;;;2.08;0.70;;;19.80;60.30;;;;;;4989644;28;20046;-69
2023/04/21 02:05:50;;;;;;;1.63;0.60;;;19.80;59.70;;;;;;4989790;28;20491;-68
2023/04/21 02:08:18;;;;;;;1.70;0.65;;;19.80;59.70;;;;;;4989118;28;20487;-69
2023/04/21 02:10:45;;;;;;;1.90;0.70;;;19.80;59.70;;;;;;4989505;28;20069;-68
2023/04/21 02:13:13;;;;;;;2.33;0.60;;;19.80;59.70;;;;;;4989290;28;20049;-68
2023/04/21 02:15:40;;;;;;;1.80;0.63;;;19.70;59.60;;;;;;4993428;28;20052;-68
2023/04/21 02:18:07;;;;;;;2.63;0.73;;;19.80;60.00;;;;;;4989219;28;20064;-68
2023/04/21 02:20:34;;;;;;;1.85;0.65;;;19.70;59.60;;;;;;4990331;28;20156;-67
2023/04/21 02:23:01;;;;;;;2.05;0.70;;;19.80;59.70;;;;;;4996274;28;20046;-68
2023/04/21 02:25:28;;;;;;;2.13;0.70;;;19.70;59.60;;;;;;4990799;28;20476;-68
2023/04/21 02:27:55;;;;;;;1.52;0.55;;;19.70;59.60;;;;;;4990674;28;20129;-68
2023/04/21 02:30:23;;;;;;;1.85;0.82;;;19.70;59.60;;;;;;4990837;28;20496;-68
2023/04/21 02:32:50;;;;;;;1.63;0.73;;;19.70;59.60;;;;;;4990866;28;21238;-68
2023/04/21 02:35:17;;;;;;;2.75;0.68;;;19.70;59.60;;;;;;4988671;28;20062;-68
2023/04/21 02:37:44;;;;;;;1.75;0.88;;;19.70;60.20;;;;;;4991532;28;20565;-68
2023/04/21 02:40:12;;;;;;;1.73;0.82;;;19.70;59.60;;;;;;4982154;28;20053;-69
2023/04/21 02:42:39;;;;;;;2.25;0.75;;;19.70;59.60;;;;;;4988691;28;20499;-69
2023/04/21 02:45:07;;;;;;;2.08;0.98;;;19.70;59.60;;;;;;4979417;28;20082;-68
2023/04/21 02:47:36;;;;;;;2.25;0.65;;;19.70;59.60;;;;;;4990494;28;20066;-68
2023/04/21 02:50:03;;;;;;;1.65;0.68;;;19.70;59.60;;;;;;4990071;28;20054;-69
2023/04/21 02:52:30;;;;;;;2.33;0.65;;;19.70;59.60;;;;;;4987395;28;20050;-68
2023/04/21 02:54:56;;;;;;;1.52;0.55;;;19.70;59.60;;;;;;4990807;28;20054;-68
2023/04/21 02:57:23;;;;;;;2.03;0.68;;;19.70;59.60;;;;;;4990554;28;20054;-68
2023/04/21 02:59:50;;;;;;;1.60;0.50;;;19.70;59.70;;;;;;4990976;28;20445;-68
2023/04/21 03:02:17;;;;;;;1.98;1.13;;;19.70;59.60;;;;;;4987739;28;20117;-69
2023/04/21 03:04:45;;;;;;;1.60;0.73;;;19.70;59.60;;;;;;4990321;28;20058;-69
2023/04/21 03:07:13;;;;;;;1.88;0.63;;;19.70;59.70;;;;;;4990329;28;20495;-68
2023/04/21 03:09:40;;;;;;;1.70;0.50;;;19.70;59.70;;;;;;4990684;28;20082;-68
2023/04/21 03:12:07;;;;;;;1.20;0.38;;;19.70;59.70;;;;;;4988506;28;20670;-68
2023/04/21 03:14:34;;;;;;;2.40;0.65;;;19.60;59.60;;;;;;4989495;28;20062;-68
2023/04/21 03:17:01;;;;;;;1.50;0.77;;;19.60;59.60;;;;;;4990291;28;20100;-68
2023/04/21 03:19:30;;;;;;;2.00;0.75;;;19.60;59.60;;;;;;4988838;28;20042;-68
2023/04/21 03:21:58;;;;;;;1.33;0.60;;;19.60;59.70;;;;;;4989148;28;20415;-68
2023/04/21 03:24:25;;;;;;;2.10;0.63;;;19.60;60.30;;;;;;4989815;28;20526;-69
2023/04/21 03:26:52;;;;;;;1.30;0.50;;;19.60;59.70;;;;;;4990383;28;20047;-69
2023/04/21 03:29:19;;;;;;;2.17;0.70;;;19.60;59.70;;;;;;4989864;28;20076;-68
2023/04/21 03:31:46;;;;;;;2.15;0.60;;;19.60;59.80;;;;;;4987909;28;20042;-68
2023/04/21 03:34:13;;;;;;;2.15;0.68;;;19.60;59.70;;;;;;4990210;28;20050;-68
2023/04/21 03:36:40;;;;;;;2.08;0.85;;;19.60;59.70;;;;;;4989920;28;20046;-68
2023/04/21 03:39:08;;;;;;;1.98;0.57;;;19.60;59.70;;;;;;4990053;28;20050;-68
2023/04/21 03:41:35;;;;;;;2.13;0.93;;;19.60;59.70;;;;;;4988307;28;20058;-68
2023/04/21 03:44:02;;;;;;;2.00;0.75;;;19.50;59.60;;;;;;4989787;28;20042;-68
2023/04/21 03:46:29;;;;;;;2.53;0.73;;;19.60;59.70;;;;;;4989575;28;20050;-68
2023/04/21 03:48:56;;;;;;;1.83;0.75;;;19.50;59.60;;;;;;4988768;28;20050;-69
2023/04/21 03:51:23;;;;;;;1.63;0.73;;;19.60;59.70;;;;;;4986242;28;20061;-68
2023/04/21 03:53:50;;;;;;;2.00;0.80;;;19.60;59.70;;;;;;4989712;28;20042;-68
2023/04/21 03:56:18;;;;;;;2.20;0.63;;;19.60;60.30;;;;;;4989178;28;20038;-68
2023/04/21 03:58:45;;;;;;;1.98;0.63;;;19.50;59.60;;;;;;4988496;28;20056;-69
2023/04/21 04:01:12;;;;;;;1.98;0.70;;;19.50;59.60;;;;;;4986145;28;20451;-69
2023/04/21 04:03:39;;;;;;;1.55;0.55;;;19.50;59.60;;;;;;4993188;28;20054;-68
2023/04/21 04:06:06;;;;;;;2.25;0.77;;;19.50;59.60;;;;;;4988167;28;20521;-68
2023/04/21 04:08:33;;;;;;;1.90;0.70;;;19.50;59.60;;;;;;4989815;28;20046;-68
2023/04/21 04:11:00;;;;;;;1.95;0.70;;;19.50;59.60;;;;;;4985845;28;20058;-68
2023/04/21 04:13:28;;;;;;;1.50;0.60;;;19.50;59.60;;;;;;4986723;28;20054;-69
2023/04/21 04:15:56;;;;;;;1.60;0.68;;;19.50;59.60;;;;;;4988001;28;20502;-70
2023/04/21 04:18:23;;;;;;;1.52;0.73;;;19.50;59.50;;;;;;4989488;28;20046;-69
2023/04/21 04:20:50;;;;;;;1.70;0.63;;;19.50;59.50;;;;;;4989423;28;20054;-69
2023/04/21 04:23:17;;;;;;;1.92;0.77;;;19.50;59.60;;;;;;4986690;28;20046;-69
2023/04/21 04:25:44;;;;;;;1.90;0.68;;;19.50;59.50;;;;;;4989675;28;20062;-69
2023/04/21 04:28:11;;;;;;;2.38;0.70;;;19.50;60.20;;;;;;4987997;28;20129;-68
2023/04/21 04:30:40;;;;;;;2.42;0.70;;;19.50;59.60;;;;;;4987253;28;20054;-69
2023/04/21 04:33:08;;;;;;;1.52;0.68;;;19.50;59.60;;;;;;4987161;28;20050;-69
2023/04/21 04:35:35;;;;;;;2.38;0.95;;;19.50;59.60;;;;;;4989207;28;20104;-69
2023/04/21 04:38:03;;;;;;;1.60;0.43;;;19.50;59.60;;;;;;4989382;28;20050;-69
2023/04/21 04:40:32;;;;;;;1.98;0.88;;;19.50;59.60;;;;;;4986342;28;20586;-69
2023/04/21 04:42:58;;;;;;;1.80;0.60;;;19.50;59.60;;;;;;4978093;28;20137;-69
2023/04/21 04:45:27;;;;;;;2.03;0.80;;;19.40;59.50;;;;;;4988011;28;20506;-68
2023/04/21 04:47:55;;;;;;;2.13;0.85;;;19.50;59.50;;;;;;4985463;28;20058;-69
2023/04/21 04:50:23;;;;;;;1.77;0.60;;;19.50;59.50;;;;;;4983916;28;20069;-69
2023/04/21 04:52:50;;;;;;;2.38;1.10;;;19.50;59.50;;;;;;4988745;28;20101;-69
2023/04/21 04:55:17;;;;;;;1.85;0.70;;;19.50;59.50;;;;;;4990702;28;20165;-69
2023/04/21 04:57:44;;;;;;;1.40;0.60;;;19.50;59.40;;;;;;4987721;28;20062;-69
2023/04/21 05:00:13;;;;;;;1.70;0.60;;;19.60;59.40;;;;;;4984141;28;20043;-69
2023/04/21 05:02:40;;;;;;;2.17;0.75;;;19.70;59.30;;;;;;4982906;28;20054;-69
2023/04/21 05:05:08;;;;;;;1.95;0.80;;;19.70;59.90;;;;;;4986891;28;20101;-69
2023/04/21 05:07:35;;;;;;;1.75;0.88;;;19.70;59.10;;;;;;4986461;28;20055;-69
2023/04/21 05:10:03;;;;;;;1.90;1.10;;;19.80;59.10;;;;;;4977732;28;20054;-69
2023/04/21 05:12:30;;;;;;;1.73;0.80;;;19.90;59.10;;;;;;4989386;28;20053;-69
2023/04/21 05:14:58;;;;;;;2.03;0.90;;;20.00;59.00;;;;;;4991538;28;20533;-69
2023/04/21 05:17:26;;;;;;;1.88;0.75;;;20.00;58.80;;;;;;4991609;28;20053;-69
2023/04/21 05:19:53;;;;;;;2.85;1.08;;;20.10;58.70;;;;;;4993144;28;20062;-69
2023/04/21 05:22:21;;;;;;;1.52;0.70;;;20.10;58.60;;;;;;4992869;28;20120;-69
2023/04/21 05:24:48;;;;;;;1.70;0.88;;;20.20;58.50;;;;;;4992618;28;20050;-68
2023/04/21 05:27:15;;;;;;;2.10;0.70;;;20.20;58.40;;;;;;4992972;28;20046;-70
2023/04/21 05:29:42;;;;;;;2.03;0.82;;;20.30;58.40;;;;;;5008681;28;20046;-69
2023/04/21 05:32:11;;;;;;;1.65;0.65;;;20.30;58.40;;;;;;4988910;28;20059;-69
2023/04/21 05:34:37;;;;;;;1.75;0.70;;;20.30;58.40;;;;;;4973499;28;20050;-69
2023/04/21 05:37:04;;;;;;;2.45;0.93;;;20.30;58.30;;;;;;4973471;28;20062;-69
2023/04/21 05:39:33;;;;;;;2.00;0.65;;;20.30;58.30;;;;;;4971928;28;20070;-69
2023/04/21 05:42:01;;;;;;;2.10;1.00;;;20.30;58.30;;;;;;4989184;28;20674;-68
2023/04/21 05:44:28;;;;;;;1.88;0.57;;;20.30;58.30;;;;;;4992308;28;20057;-69
2023/04/21 05:46:54;;;;;;;1.75;0.90;;;20.30;59.00;;;;;;4992996;28;20060;-69
2023/04/21 05:49:21;;;;;;;2.08;0.88;;;20.40;58.30;;;;;;4991505;28;20065;-69
2023/04/21 05:51:48;;;;;;;2.00;0.93;;;20.40;58.40;;;;;;4991046;28;20046;-69
2023/04/21 05:54:15;;;;;;;2.00;0.95;;;20.30;58.30;;;;;;4992758;28;20117;-69
2023/04/21 05:56:44;;;;;;;2.03;0.80;;;20.40;58.40;;;;;;4991871;28;20065;-69
2023/04/21 05:59:11;;;;;;;2.88;0.80;;;20.30;58.30;;;;;;4990927;28;20447;-70
2023/04/21 06:01:38;;;;;;;1.90;0.80;;;20.30;58.40;;;;;;4981583;28;20411;-69
2023/04/21 06:04:05;;;;;;;2.13;0.77;;;20.30;58.40;;;;;;4986590;28;20515;-69
2023/04/21 06:06:32;;;;;;;2.40;1.23;;;20.30;58.40;;;;;;4991596;28;20053;-69
2023/04/21 06:08:59;;;;;;;1.83;0.60;;;20.30;58.40;;;;;;4982497;28;20058;-69
2023/04/21 06:11:26;;;;;;;3.33;1.10;;;20.30;58.50;;;;;;4988484;28;20054;-68
2023/04/21 06:13:58;;;;;;;2.97;1.08;;;20.30;58.50;;;;;;4979037;28;20058;-72
2023/04/21 06:16:25;;;;;;;2.30;1.00;;;20.30;58.60;;;;;;4992095;28;20058;-72
2023/04/21 06:18:52;;;;;;;2.40;0.90;;;20.30;58.60;;;;;;4991863;28;20154;-71
2023/04/21 06:21:19;;;;;;;2.42;1.02;;;20.30;58.80;;;;;;4990705;28;20142;-72
2023/04/21 06:23:46;;;;;;;5.03;1.00;;;20.40;58.90;;;;;;4990810;28;20093;-68
2023/04/21 06:26:13;;;;;;;2.38;0.98;;;20.40;58.90;;;;;;4980065;28;20067;-68
2023/04/21 06:28:40;;;;;;;3.15;0.90;;;20.40;59.00;;;;;;4981129;28;20054;-68
2023/04/21 06:31:13;;;;;;;3.25;0.90;;;20.50;59.00;;;;;;4988921;28;20062;-69
2023/04/21 06:33:40;;;;;;;2.42;0.73;;;20.50;59.10;;;;;;4990336;28;20047;-68
2023/04/21 06:36:08;;;;;;;2.15;0.93;;;20.60;59.00;;;;;;4989425;28;20488;-69
2023/04/21 06:38:35;;;;;;;3.00;1.00;;;20.60;59.00;;;;;;4988096;28;20054;-69
2023/04/21 06:41:03;;;;;;;2.42;1.25;;;20.60;58.90;;;;;;4989134;28;20516;-69
2023/04/21 06:43:30;;;;;;;2.28;0.93;;;20.70;59.50;;;;;;4989839;28;20101;-69
2023/04/21 06:45:57;;;;;;;2.35;1.05;;;20.70;58.80;;;;;;4988900;28;20042;-69
2023/04/21 06:48:26;;;;;;;4.25;1.17;;;20.80;59.40;;;;;;4988817;28;20047;-69
2023/04/21 06:50:53;;;;;;;2.67;1.20;;;20.80;58.60;;;;;;4989336;28;20054;-69
2023/04/21 06:53:20;;;;;;;3.05;0.95;;;20.80;58.60;;;;;;4990434;28;20081;-70
2023/04/21 06:55:47;;;;;;;4.07;0.88;;;20.80;58.40;;;;;;4988943;28;20054;-68
2023/04/21 06:58:15;;;;;;;3.33;1.25;;;20.90;58.40;;;;;;4990283;28;20125;-68
2023/04/21 07:00:42;;;;;;;2.50;1.02;;;20.90;58.30;;;;;;4983605;28;20412;-70
2023/04/21 07:03:09;;;;;;;2.72;0.90;;;20.90;58.20;;;;;;4985727;28;20058;-68
2023/04/21 07:05:37;;;;;;;3.17;1.38;;;20.90;58.20;;;;;;4988369;28;20050;-69
2023/04/21 07:08:04;;;;;;;2.45;1.13;;;21.00;58.20;;;;;;4990613;28;20073;-66
2023/04/21 07:10:31;;;;;;;2.25;1.02;;;20.90;58.10;;;;;;4989513;28;20058;-68
2023/04/21 07:12:58;;;;;;;3.25;1.23;;;20.90;58.10;;;;;;4987273;28;20054;-68
2023/04/21 07:15:25;;;;;;;2.80;1.15;;;20.90;58.00;;;;;;4987580;28;20046;-68
2023/04/21 07:17:51;;;;;;;3.80;1.13;;;20.90;58.10;;;;;;4989427;28;20050;-68
2023/04/21 07:20:18;;;;;;;3.10;1.13;;;20.90;58.00;;;;;;4988543;28;20073;-69
2023/04/21 07:22:47;;;;;;;2.60;1.30;;;20.90;58.00;;;;;;4990362;28;20057;-69
2023/04/21 07:25:14;;;;;;;2.30;1.15;;;20.90;58.00;;;;;;4988988;28;20050;-68
2023/04/21 07:27:41;;;;;;;4.85;1.42;;;20.90;58.00;;;;;;4986564;28;20050;-69
2023/04/21 07:30:08;;;;;;;2.35;1.30;;;20.90;58.00;;;;;;4988549;28;20046;-69
2023/04/21 07:32:37;;;;;;;3.33;1.13;;;20.90;58.00;;;;;;4988726;28;20111;-69
2023/04/21 07:35:04;;;;;;;3.50;1.45;;;20.90;58.00;;;;;;4988116;28;20054;-69
2023/04/21 07:37:31;;;;;;;2.47;1.27;;;20.90;57.90;;;;;;4987577;28;20050;-69
2023/04/21 07:40:00;;;;;;;3.08;1.30;;;20.90;58.60;;;;;;4987439;28;20042;-69
2023/04/21 07:42:27;;;;;;;2.95;1.30;;;20.90;58.10;;;;;;4977475;28;20043;-69
2023/04/21 07:44:54;;;;;;;3.53;1.70;;;20.90;58.00;;;;;;4989987;28;20104;-69
2023/04/21 07:47:21;;;;;;;3.90;1.35;;;20.90;58.00;;;;;;4988745;28;20058;-69
2023/04/21 07:49:48;;;;;;;3.33;1.63;;;20.90;58.00;;;;;;4979599;28;20093;-67
2023/04/21 07:52:15;;;;;;;3.22;1.40;;;20.90;58.00;;;;;;4989235;28;20062;-69
2023/04/21 07:54:42;;;;;;;2.65;1.33;;;20.90;58.10;;;;;;4981987;28;20101;-69
2023/04/21 07:57:11;;;;;;;3.38;1.40;;;20.90;58.10;;;;;;4977850;28;20046;-69
2023/04/21 07:59:38;;;;;;;4.85;1.80;;;20.90;58.10;;;;;;4980350;28;20522;-69
2023/04/21 08:02:05;;;;;;;3.33;1.85;;;20.90;58.10;;;;;;4986621;28;20054;-69
2023/04/21 08:04:32;;;;;;;3.42;1.55;;;20.90;58.80;;;;;;4989247;28;20064;-69
2023/04/21 08:06:59;;;;;;;3.55;1.85;;;20.90;58.10;;;;;;4988474;28;20065;-69
2023/04/21 08:09:26;;;;;;;3.08;1.35;;;20.90;58.20;;;;;;4989096;28;20046;-69
2023/04/21 08:11:53;;;;;;;3.92;1.23;;;20.90;58.20;;;;;;4987348;28;20061;-69
2023/04/21 08:14:22;;;;;;;3.08;1.48;;;20.90;58.20;;;;;;4987090;28;20057;-69
2023/04/21 08:16:49;;;;;;;3.42;1.35;;;20.90;58.20;;;;;;4986429;28;20182;-69
2023/04/21 08:19:16;;;;;;;3.50;1.63;;;20.90;58.20;;;;;;4988530;28;20488;-68
2023/04/21 08:21:43;;;;;;;3.25;1.23;;;20.90;58.20;;;;;;4988346;28;20522;-69
2023/04/21 08:24:10;;;;;;;4.00;1.73;;;20.90;58.30;;;;;;4988704;28;20050;-69
2023/04/21 08:26:37;;;;;;;3.55;1.42;;;20.80;58.20;;;;;;4988084;28;20138;-68
2023/04/21 08:29:06;;;;;;;3.05;1.40;;;20.80;58.30;;;;;;4988053;28;20380;-69
2023/04/21 08:31:34;;;;;;;3.05;1.55;;;20.90;58.40;;;;;;4988760;28;20098;-68
2023/04/21 08:34:01;;;;;;;2.78;1.58;;;20.90;58.40;;;;;;4977777;28;20050;-69
2023/04/21 08:36:28;;;;;;;3.35;1.80;;;20.80;58.40;;;;;;4987976;28;20583;-69
2023/04/21 08:38:55;;;;;;;3.70;1.33;;;20.80;59.10;;;;;;4986502;28;20054;-69
2023/04/21 08:41:22;;;;;;;3.28;1.65;;;20.90;58.50;;;;;;4987275;28;20071;-69
2023/04/21 08:43:49;;;;;;;3.90;1.67;;;20.80;58.40;;;;;;4987281;28;20047;-67
2023/04/21 08:46:16;;;;;;;3.50;1.58;;;20.80;59.20;;;;;;4988451;28;20400;-69
2023/04/21 08:48:46;;;;;;;2.55;1.52;;;20.80;58.50;;;;;;4987945;28;20050;-69
2023/04/21 08:51:20;;;;;;;3.20;1.52;;;20.80;58.50;;;;;;4990821;28;20426;-68
2023/04/21 08:53:47;;;;;;;3.13;1.48;;;20.80;58.50;;;;;;4991700;28;20061;-68
2023/04/21 08:56:14;;;;;;;3.30;1.95;;;20.80;58.50;;;;;;4991136;28;20050;-69
2023/04/21 08:58:41;;;;;;;2.60;1.42;;;20.80;58.60;;;;;;4992524;28;20054;-69
2023/04/21 09:01:08;;;;;;;4.65;1.55;;;20.80;58.60;;;;;;4986033;28;20061;-69
2023/04/21 09:03:35;;;;;;;3.88;1.70;;;20.80;58.60;;;;;;4990161;28;20050;-68
2023/04/21 09:06:05;;;;;;;3.17;1.42;;;20.80;58.60;;;;;;4989776;28;20054;-69
2023/04/21 09:08:34;;;;;;;3.00;1.55;;;20.80;58.60;;;;;;4990100;28;20112;-68
2023/04/21 09:11:01;;;;;;;3.58;1.65;;;20.90;58.70;;;;;;4989882;28;20062;-68
2023/04/21 09:13:32;;;;;;;3.25;1.83;;;20.80;58.60;;;;;;4989708;28;20042;-69
2023/04/21 09:16:00;;;;;;;3.28;1.95;;;20.90;58.70;;;;;;4991818;28;20050;-69
2023/04/21 09:18:34;;;;;;;3.22;1.42;;;20.90;58.70;;;;;;4989091;28;20058;-69
2023/04/21 09:21:10;;;;;;;3.25;1.88;;;20.90;58.70;;;;;;4988005;28;20769;-69
2023/04/21 09:23:42;;;;;;;3.72;1.70;;;20.90;58.80;;;;;;4991018;28;20625;-67
2023/04/21 09:26:09;;;;;;;3.17;1.80;;;20.90;58.70;;;;;;4982756;28;20380;-69
2023/04/21 09:28:36;;;;;;;3.05;1.52;;;20.90;58.70;;;;;;4991398;28;20058;-69
2023/04/21 09:31:03;;;;;;;4.20;1.67;;;20.90;58.80;;;;;;4990457;28;20054;-69
2023/04/21 09:33:33;;;;;;;3.78;1.85;;;20.90;58.70;;;;;;4992049;28;20050;-69
2023/04/21 09:36:02;;;;;;;2.92;1.58;;;20.90;59.40;;;;;;4990345;28;20136;-69
2023/04/21 09:38:32;;;;;;;4.90;1.90;;;20.90;58.70;;;;;;4990726;28;20054;-69
2023/04/21 09:41:00;;;;;;;3.60;1.60;;;20.90;58.70;;;;;;4990615;28;20054;-68
2023/04/21 09:43:27;;;;;;;3.00;1.80;;;21.00;58.80;;;;;;4991664;28;20057;-69
2023/04/21 09:45:55;;;;;;;4.85;1.88;;;21.00;58.80;;;;;;4991336;28;20069;-68
2023/04/21 09:48:28;;;;;;;4.43;1.67;;;21.00;58.80;;;;;;4991443;28;20061;-69
2023/04/21 09:50:56;;;;;;;3.28;1.73;;;21.00;58.80;;;;;;4989312;28;20153;-69
2023/04/21 09:53:26;;;;;;;4.05;1.45;;;21.00;58.80;;;;;;4989478;28;20070;-69
2023/04/21 09:55:56;;;;;;;3.28;1.77;;;21.00;58.80;;;;;;4990877;28;20061;-68
2023/04/21 09:58:27;;;;;;;3.75;1.88;;;21.00;58.80;;;;;;4988566;28;20050;-69
2023/04/21 10:00:57;;;;;;;3.50;1.77;;;21.00;58.80;;;;;;4986290;28;20057;-68
2023/04/21 10:03:28;;;;;;;4.28;1.88;;;21.00;58.80;;;;;;4987309;28;20061;-69
2023/04/21 10:05:55;;;;;;;4.72;1.80;;;21.10;59.50;;;;;;4980513;28;20273;-76
2023/04/21 10:08:22;;;;;;;3.78;2.00;;;21.10;58.80;;;;;;4978251;28;20410;-72
2023/04/21 10:10:51;;;;;;;4.38;1.95;;;21.10;58.80;;;;;;4971075;28;20054;-70
2023/04/21 10:13:20;;;;;;;5.03;2.03;;;21.10;58.80;;;;;;4982094;28;20601;-71
2023/04/21 10:15:47;;;;;;;4.20;1.85;;;21.10;58.80;;;;;;4989228;28;20054;-69
2023/04/21 10:18:17;;;;;;;2.92;1.63;;;21.20;58.80;;;;;;4990538;28;20075;-69
2023/04/21 10:20:52;;;;;;;3.25;1.70;;;21.20;58.80;;;;;;4988358;28;20054;-74
2023/04/21 10:23:30;;;;;;;3.40;1.75;;;21.20;58.80;;;;;;4977367;28;20050;-72
2023/04/21 10:26:11;;;;;;;4.57;1.77;;;21.30;58.90;;;;;;4972433;28;20051;-71
2023/04/21 10:28:55;;;;;;;3.80;2.22;;;21.20;58.90;;;;;;4970806;28;20050;-72
2023/04/21 10:31:49;;;;;;;4.68;1.73;;;21.30;58.90;;;;;;4981729;28;20057;-72
2023/04/21 10:34:21;;;;;;;7.85;1.80;;;21.30;58.90;;;;;;4980318;28;20486;-72
2023/04/21 10:37:05;;;;;;;2.95;1.83;;;21.40;58.90;;;;;;4998653;28;20404;-72
2023/04/21 10:39:34;;;;;;;3.63;1.85;;;21.40;58.90;;;;;;4989745;28;20053;-70
2023/04/21 10:42:16;;;;;;;;;;;21.50;58.90;;;;;;4990178;28;20061;-71
2023/04/21 10:44:50;;;;;;;2.58;1.38;;;21.50;59.70;;;;;;4989787;28;20608;-71
2023/04/21 10:47:25;;;;;;;3.83;2.00;;;21.50;58.80;;;;;;4985358;28;20515;-70
2023/04/21 10:49:52;;;;;;;4.80;1.98;;;21.50;58.80;;;;;;4990857;28;20153;-70
2023/04/21 10:52:20;;;;;;;4.68;2.28;;;21.50;58.80;;;;;;4989969;28;20062;-70
2023/04/21 10:55:05;;;;;;;4.10;1.95;;;21.60;59.50;;;;;;4989390;28;20081;-70
2023/04/21 10:57:34;;;;;;;3.72;1.85;;;21.60;58.90;;;;;;4987100;28;20050;-70
2023/04/21 11:00:05;;;;;;;4.50;1.90;;;21.60;58.80;;;;;;4989073;28;20054;-71
2023/04/21 11:02:33;;;;;;;3.42;1.70;;;21.60;58.80;;;;;;4987158;28;20062;-71
2023/04/21 11:05:01;;;;;;;4.50;2.17;;;21.70;58.80;;;;;;4989067;28;20062;-70
2023/04/21 11:07:28;;;;;;;3.50;1.73;;;21.70;58.80;;;;;;4989609;28;20056;-70
2023/04/21 11:09:59;;;;;;;3.72;2.10;;;21.70;58.90;;;;;;4986101;28;20050;-70
2023/04/21 11:12:30;;;;;;;4.03;1.77;;;21.70;58.90;;;;;;4982459;28;20042;-70
2023/04/21 11:14:57;;;;;;;2.50;1.65;;;21.80;58.90;;;;;;4990376;28;20062;-70
2023/04/21 11:17:26;;;;;;;4.03;1.63;;;21.80;59.00;;;;;;4987846;28;20054;-71
2023/04/21 11:19:54;;;;;;;3.40;1.83;;;21.80;58.90;;;;;;4988976;28;20058;-70
2023/04/21 11:22:23;;;;;;;4.18;1.92;;;21.80;58.80;;;;;;4981425;28;20062;-70
2023/04/21 11:24:54;;;;;;;3.90;1.65;;;21.80;58.80;;;;;;4987213;28;20057;-70
2023/04/21 11:27:22;;;;;;;4.28;2.10;;;21.90;58.80;;;;;;4989446;28;20050;-70
2023/04/21 11:29:50;;;;;;;2.78;1.77;;;21.90;58.80;;;;;;4989963;28;20060;-70
2023/04/21 11:32:17;;;;;;;2.85;1.70;;;21.90;58.80;;;;;;4987633;28;20050;-70
2023/04/21 11:34:46;;;;;;;3.40;1.75;;;21.90;58.70;;;;;;4988870;28;20042;-70
2023/04/21 11:37:16;;;;;;;5.13;2.10;;;22.00;58.70;;;;;;4990170;28;20166;-70
2023/04/21 11:39:43;;;;;;;4.38;2.30;;;22.00;58.70;;;;;;4990114;28;20050;-70
2023/04/21 11:42:11;;;;;;;3.70;2.40;;;22.00;58.70;;;;;;4988240;28;20061;-70
2023/04/21 11:44:40;;;;;;;4.53;2.22;;;22.10;58.70;;;;;;4975991;28;20561;-72
2023/04/21 11:47:14;;;;;;;3.80;1.88;;;22.00;58.70;;;;;;4987406;28;20050;-72
2023/04/21 11:49:47;;;;;;;4.30;2.05;;;22.10;58.70;;;;;;4989946;28;20062;-74
2023/04/21 11:52:24;;;;;;;3.35;1.67;;;22.10;59.40;;;;;;4987793;28;20066;-73
2023/04/21 11:54:55;;;;;;;5.95;2.15;;;22.20;58.80;;;;;;4981369;28;21127;-71
2023/04/21 11:57:24;;;;;;;3.50;1.75;;;22.20;58.80;;;;;;4988662;28;20081;-71
2023/04/21 11:59:51;;;;;;;4.15;1.42;;;22.20;58.70;;;;;;4989143;28;20050;-72
2023/04/21 12:02:24;;;;;;;3.13;2.10;;;22.20;58.70;;;;;;4990090;28;20140;-72
2023/04/21 12:05:02;;;;;;;6.13;2.05;;;22.30;58.70;;;;;;4989966;28;20081;-72
2023/04/21 12:07:31;;;;;;;4.45;1.52;;;22.30;58.70;;;;;;4988569;28;20057;-74
2023/04/21 12:09:58;;;;;;;4.05;1.98;;;22.30;58.60;;;;;;4988357;28;20054;-74
2023/04/21 12:12:25;;;;;;;3.35;1.88;;;22.30;58.60;;;;;;4985599;28;20061;-73
2023/04/21 12:14:53;;;;;;;3.83;1.73;;;22.40;58.60;;;;;;4985679;28;20050;-72
2023/04/21 12:17:20;;;;;;;3.25;2.00;;;22.40;58.60;;;;;;5001807;28;20128;-74
2023/04/21 12:19:47;;;;;;;3.70;2.17;;;22.40;58.50;;;;;;4981047;28;20129;-73
2023/04/21 12:22:17;;;;;;;4.72;2.00;;;22.40;58.50;;;;;;4981861;28;20053;-69
2023/04/21 12:24:47;;;;;;;3.55;1.75;;;22.40;58.50;;;;;;4977871;28;20066;-70
2023/04/21 12:27:14;;;;;;;3.67;2.03;;;22.50;58.60;;;;;;4983835;28;20069;-73
2023/04/21 12:29:41;;;;;;;3.60;1.60;;;22.50;58.50;;;;;;4987139;28;20395;-69
2023/04/21 12:32:12;;;;;;;3.08;1.90;;;22.50;58.50;;;;;;4988870;28;20110;-68
2023/04/21 12:34:39;;;;;;;2.80;1.95;;;22.50;58.50;;;;;;4975325;28;20055;-72
2023/04/21 12:37:06;;;;;;;3.10;1.48;;;22.50;58.50;;;;;;4977964;28;20065;-72
2023/04/21 12:39:35;;;;;;;2.95;1.45;;;22.50;58.40;;;;;;4972709;28;20053;-68
2023/04/21 12:42:02;;;;;;;2.63;1.75;;;22.50;58.50;;;;;;4972913;28;20051;-73
2023/04/21 12:44:29;;;;;;;3.75;1.80;;;22.50;58.40;;;;;;4969211;28;20077;-73
2023/04/21 12:46:56;;;;;;;5.88;1.73;;;22.50;58.40;;;;;;4986092;28;20762;-69
2023/04/21 12:49:24;;;;;;;3.35;1.73;;;22.50;58.40;;;;;;4987390;28;20089;-68
2023/04/21 12:51:51;;;;;;;3.88;2.00;;;22.50;58.50;;;;;;4993764;28;20054;-69